sensor_id;sensor_type;location;lat;lon;timestamp;temperature;humidity
48912;DHT22;34722;52.108;5.044;2022-11-15T00:00:27;7.20;99.90
48912;DHT22;34722;52.108;5.044;2022-11-15T00:02:53;7.20;99.90
48912;DHT22;34722;52.108;5.044;2022-11-15T00:05:18;7.20;99.90
48912;DHT22;34722;52.108;5.044;2022-11-15T00:07:44;7.10;99.90
48912;DHT22;34722;52.108;5.044;2022-11-15T00:10:10;7.20;99.90
48912;DHT22;34722;52.108;5.044;2022-11-15T00:12:35;7.20;99.90
48912;DHT22;34722;52.108;5.044;2022-11-15T00:15:01;7.20;99.90
48912;DHT22;34722;52.108;5.044;2022-11-15T00:17:27;7.20;99.90
48912;DHT22;34722;52.108;5.044;2022-11-15T00:19:52;7.20;99.90
48912;DHT22;34722;52.108;5.044;2022-11-15T00:22:18;7.20;99.90
48912;DHT22;34722;52.108;5.044;2022-11-15T00:24:44;7.20;99.90
48912;DHT22;34722;52.108;5.044;2022-11-15T00:27:10;7.30;99.90
48912;DHT22;34722;52.108;5.044;2022-11-15T00:29:35;7.30;99.90
48912;DHT22;34722;52.108;5.044;2022-11-15T00:32:04;7.30;99.90
48912;DHT22;34722;52.108;5.044;2022-11-15T00:34:29;7.30;99.90
48912;DHT22;34722;52.108;5.044;2022-11-15T00:36:55;7.30;99.90
48912;DHT22;34722;52.108;5.044;2022-11-15T00:39:21;7.30;99.90
48912;DHT22;34722;52.108;5.044;2022-11-15T00:41:47;7.30;99.90
48912;DHT22;34722;52.108;5.044;2022-11-15T00:44:12;7.40;99.90
48912;DHT22;34722;52.108;5.044;2022-11-15T00:46:38;7.40;99.90
48912;DHT22;34722;52.108;5.044;2022-11-15T00:49:04;7.40;99.90
48912;DHT22;34722;52.108;5.044;2022-11-15T00:51:30;7.40;99.90
48912;DHT22;34722;52.108;5.044;2022-11-15T00:53:55;7.50;99.90
48912;DHT22;34722;52.108;5.044;2022-11-15T00:56:21;7.50;99.90
48912;DHT22;34722;52.108;5.044;2022-11-15T00:58:46;7.50;99.90
48912;DHT22;34722;52.108;5.044;2022-11-15T01:01:13;7.50;99.90
48912;DHT22;34722;52.108;5.044;2022-11-15T01:03:40;7.60;99.90
48912;DHT22;34722;52.108;5.044;2022-11-15T01:06:09;7.60;99.90
48912;DHT22;34722;52.108;5.044;2022-11-15T01:08:35;7.60;99.90
48912;DHT22;34722;52.108;5.044;2022-11-15T01:11:07;7.70;99.90
48912;DHT22;34722;52.108;5.044;2022-11-15T01:13:34;7.70;99.90
48912;DHT22;34722;52.108;5.044;2022-11-15T01:16:07;7.70;99.90
48912;DHT22;34722;52.108;5.044;2022-11-15T01:18:33;7.80;99.90
48912;DHT22;34722;52.108;5.044;2022-11-15T01:21:05;7.80;99.90
48912;DHT22;34722;52.108;5.044;2022-11-15T01:23:30;7.80;99.90
48912;DHT22;34722;52.108;5.044;2022-11-15T01:26:03;7.80;99.90
48912;DHT22;34722;52.108;5.044;2022-11-15T01:28:34;7.80;99.90
48912;DHT22;34722;52.108;5.044;2022-11-15T01:31:04;7.80;99.90
48912;DHT22;34722;52.108;5.044;2022-11-15T01:33:30;7.90;99.90
48912;DHT22;34722;52.108;5.044;2022-11-15T01:35:56;7.90;99.90
48912;DHT22;34722;52.108;5.044;2022-11-15T01:38:22;8.00;99.90
48912;DHT22;34722;52.108;5.044;2022-11-15T01:40:48;8.00;99.90
48912;DHT22;34722;52.108;5.044;2022-11-15T01:43:22;8.00;99.90
48912;DHT22;34722;52.108;5.044;2022-11-15T01:45:52;8.10;99.90
48912;DHT22;34722;52.108;5.044;2022-11-15T01:48:20;8.10;99.90
48912;DHT22;34722;52.108;5.044;2022-11-15T01:50:47;8.10;99.90
48912;DHT22;34722;52.108;5.044;2022-11-15T01:53:13;8.10;99.90
48912;DHT22;34722;52.108;5.044;2022-11-15T01:55:39;8.20;99.90
48912;DHT22;34722;52.108;5.044;2022-11-15T01:58:06;8.20;99.90
48912;DHT22;34722;52.108;5.044;2022-11-15T02:00:32;8.20;99.90
48912;DHT22;34722;52.108;5.044;2022-11-15T02:02:57;8.20;99.90
48912;DHT22;34722;52.108;5.044;2022-11-15T02:05:23;8.30;99.90
48912;DHT22;34722;52.108;5.044;2022-11-15T02:07:50;8.30;99.90
48912;DHT22;34722;52.108;5.044;2022-11-15T02:10:24;8.30;99.90
48912;DHT22;34722;52.108;5.044;2022-11-15T02:12:51;8.40;99.90
48912;DHT22;34722;52.108;5.044;2022-11-15T02:15:17;8.40;99.90
48912;DHT22;34722;52.108;5.044;2022-11-15T02:31:11;8.60;99.90
48912;DHT22;34722;52.108;5.044;2022-11-15T02:34:33;8.70;99.90
48912;DHT22;34722;52.108;5.044;2022-11-15T02:37:07;8.80;99.90
48912;DHT22;34722;52.108;5.044;2022-11-15T02:42:17;8.90;99.90
48912;DHT22;34722;52.108;5.044;2022-11-15T02:45:06;9.00;99.90
48912;DHT22;34722;52.108;5.044;2022-11-15T02:47:39;9.00;99.90
48912;DHT22;34722;52.108;5.044;2022-11-15T02:50:08;9.10;99.90
48912;DHT22;34722;52.108;5.044;2022-11-15T02:52:37;9.10;99.90
48912;DHT22;34722;52.108;5.044;2022-11-15T02:55:03;9.20;99.90
48912;DHT22;34722;52.108;5.044;2022-11-15T03:00:07;9.30;99.90
48912;DHT22;34722;52.108;5.044;2022-11-15T03:05:30;9.40;99.90
48912;DHT22;34722;52.108;5.044;2022-11-15T03:09:19;9.40;99.90
48912;DHT22;34722;52.108;5.044;2022-11-15T03:11:17;9.40;99.90
48912;DHT22;34722;52.108;5.044;2022-11-15T03:14:12;9.50;99.90
48912;DHT22;34722;52.108;5.044;2022-11-15T03:19:44;9.50;99.90
48912;DHT22;34722;52.108;5.044;2022-11-15T03:22:13;9.50;99.90
48912;DHT22;34722;52.108;5.044;2022-11-15T03:24:43;9.50;99.90
48912;DHT22;34722;52.108;5.044;2022-11-15T03:27:10;9.60;99.90
48912;DHT22;34722;52.108;5.044;2022-11-15T03:29:41;9.60;99.90
48912;DHT22;34722;52.108;5.044;2022-11-15T03:32:23;9.60;99.90
48912;DHT22;34722;52.108;5.044;2022-11-15T03:35:11;9.60;99.90
48912;DHT22;34722;52.108;5.044;2022-11-15T03:37:50;9.70;99.90
48912;DHT22;34722;52.108;5.044;2022-11-15T03:40:17;9.70;99.90
48912;DHT22;34722;52.108;5.044;2022-11-15T03:42:48;9.80;99.90
48912;DHT22;34722;52.108;5.044;2022-11-15T03:45:23;9.80;99.90
48912;DHT22;34722;52.108;5.044;2022-11-15T03:48:07;9.80;99.90
48912;DHT22;34722;52.108;5.044;2022-11-15T03:50:35;9.90;99.90
48912;DHT22;34722;52.108;5.044;2022-11-15T03:53:01;9.90;99.90
48912;DHT22;34722;52.108;5.044;2022-11-15T03:55:27;9.90;99.90
48912;DHT22;34722;52.108;5.044;2022-11-15T03:58:01;10.00;99.90
48912;DHT22;34722;52.108;5.044;2022-11-15T04:00:27;10.00;99.90
48912;DHT22;34722;52.108;5.044;2022-11-15T04:02:54;10.00;99.90
48912;DHT22;34722;52.108;5.044;2022-11-15T04:05:19;10.00;99.90
48912;DHT22;34722;52.108;5.044;2022-11-15T04:07:45;10.00;99.90
48912;DHT22;34722;52.108;5.044;2022-11-15T04:10:11;10.00;99.90
48912;DHT22;34722;52.108;5.044;2022-11-15T04:12:51;10.00;99.90
48912;DHT22;34722;52.108;5.044;2022-11-15T04:15:21;10.00;99.90
48912;DHT22;34722;52.108;5.044;2022-11-15T04:17:49;10.00;99.90
48912;DHT22;34722;52.108;5.044;2022-11-15T04:20:22;10.00;99.90
48912;DHT22;34722;52.108;5.044;2022-11-15T04:23:10;10.00;99.90
48912;DHT22;34722;52.108;5.044;2022-11-15T04:25:55;10.00;99.90
48912;DHT22;34722;52.108;5.044;2022-11-15T04:28:22;10.10;99.90
48912;DHT22;34722;52.108;5.044;2022-11-15T04:30:47;10.10;99.90
48912;DHT22;34722;52.108;5.044;2022-11-15T04:33:13;10.10;99.90
48912;DHT22;34722;52.108;5.044;2022-11-15T04:35:43;10.10;99.90
48912;DHT22;34722;52.108;5.044;2022-11-15T04:38:10;10.10;99.90
48912;DHT22;34722;52.108;5.044;2022-11-15T04:40:36;10.20;99.90
48912;DHT22;34722;52.108;5.044;2022-11-15T04:43:03;10.20;99.90
48912;DHT22;34722;52.108;5.044;2022-11-15T04:45:29;10.20;99.90
48912;DHT22;34722;52.108;5.044;2022-11-15T04:47:55;10.20;99.90
48912;DHT22;34722;52.108;5.044;2022-11-15T04:50:21;10.30;99.90
48912;DHT22;34722;52.108;5.044;2022-11-15T04:52:53;10.30;99.90
48912;DHT22;34722;52.108;5.044;2022-11-15T04:55:19;10.30;99.90
48912;DHT22;34722;52.108;5.044;2022-11-15T04:57:45;10.30;99.90
48912;DHT22;34722;52.108;5.044;2022-11-15T05:00:13;10.40;99.90
48912;DHT22;34722;52.108;5.044;2022-11-15T05:02:42;10.40;99.90
48912;DHT22;34722;52.108;5.044;2022-11-15T05:05:26;10.40;99.90
48912;DHT22;34722;52.108;5.044;2022-11-15T05:07:53;10.50;99.90
48912;DHT22;34722;52.108;5.044;2022-11-15T05:10:19;10.50;99.90
48912;DHT22;34722;52.108;5.044;2022-11-15T05:12:46;10.60;99.90
48912;DHT22;34722;52.108;5.044;2022-11-15T05:15:12;10.60;99.90
48912;DHT22;34722;52.108;5.044;2022-11-15T05:17:37;10.60;99.90
48912;DHT22;34722;52.108;5.044;2022-11-15T05:20:10;10.60;99.90
48912;DHT22;34722;52.108;5.044;2022-11-15T05:22:36;10.70;99.90
48912;DHT22;34722;52.108;5.044;2022-11-15T05:25:02;10.70;99.90
48912;DHT22;34722;52.108;5.044;2022-11-15T05:27:28;10.70;99.90
48912;DHT22;34722;52.108;5.044;2022-11-15T05:29:54;10.80;99.90
48912;DHT22;34722;52.108;5.044;2022-11-15T05:32:20;10.70;99.90
48912;DHT22;34722;52.108;5.044;2022-11-15T05:34:52;10.70;99.90
48912;DHT22;34722;52.108;5.044;2022-11-15T05:37:20;10.80;99.90
48912;DHT22;34722;52.108;5.044;2022-11-15T05:39:46;10.70;99.90
48912;DHT22;34722;52.108;5.044;2022-11-15T05:42:13;10.80;99.90
48912;DHT22;34722;52.108;5.044;2022-11-15T05:44:46;10.70;99.90
48912;DHT22;34722;52.108;5.044;2022-11-15T05:47:21;10.80;99.90
48912;DHT22;34722;52.108;5.044;2022-11-15T05:49:49;10.80;99.90
48912;DHT22;34722;52.108;5.044;2022-11-15T05:52:22;10.80;99.90
48912;DHT22;34722;52.108;5.044;2022-11-15T05:54:53;10.80;99.90
48912;DHT22;34722;52.108;5.044;2022-11-15T05:57:19;10.80;99.90
48912;DHT22;34722;52.108;5.044;2022-11-15T05:59:45;10.80;99.90
48912;DHT22;34722;52.108;5.044;2022-11-15T06:02:11;10.80;99.90
48912;DHT22;34722;52.108;5.044;2022-11-15T06:04:36;10.90;99.90
48912;DHT22;34722;52.108;5.044;2022-11-15T06:07:02;10.90;99.90
48912;DHT22;34722;52.108;5.044;2022-11-15T06:09:28;10.80;99.90
48912;DHT22;34722;52.108;5.044;2022-11-15T06:11:54;10.90;99.90
48912;DHT22;34722;52.108;5.044;2022-11-15T06:14:20;10.80;99.90
48912;DHT22;34722;52.108;5.044;2022-11-15T06:16:45;10.90;99.90
48912;DHT22;34722;52.108;5.044;2022-11-15T06:19:11;10.90;99.90
48912;DHT22;34722;52.108;5.044;2022-11-15T06:21:36;10.90;99.90
48912;DHT22;34722;52.108;5.044;2022-11-15T06:24:03;10.90;99.90
48912;DHT22;34722;52.108;5.044;2022-11-15T06:26:28;10.90;99.90
48912;DHT22;34722;52.108;5.044;2022-11-15T06:28:54;10.90;99.90
48912;DHT22;34722;52.108;5.044;2022-11-15T06:31:20;10.90;99.90
48912;DHT22;34722;52.108;5.044;2022-11-15T06:33:46;10.90;99.90
48912;DHT22;34722;52.108;5.044;2022-11-15T06:36:12;10.90;99.90
48912;DHT22;34722;52.108;5.044;2022-11-15T06:38:45;10.90;99.90
48912;DHT22;34722;52.108;5.044;2022-11-15T06:41:12;10.90;99.90
48912;DHT22;34722;52.108;5.044;2022-11-15T06:43:41;10.90;99.90
48912;DHT22;34722;52.108;5.044;2022-11-15T06:46:07;10.90;99.90
48912;DHT22;34722;52.108;5.044;2022-11-15T06:48:37;10.90;99.90
48912;DHT22;34722;52.108;5.044;2022-11-15T06:51:04;10.90;99.90
48912;DHT22;34722;52.108;5.044;2022-11-15T06:53:30;10.90;99.90
48912;DHT22;34722;52.108;5.044;2022-11-15T06:56:06;10.80;99.90
48912;DHT22;34722;52.108;5.044;2022-11-15T06:58:33;10.80;99.90
48912;DHT22;34722;52.108;5.044;2022-11-15T07:01:03;10.80;99.90
48912;DHT22;34722;52.108;5.044;2022-11-15T07:03:29;10.80;99.90
48912;DHT22;34722;52.108;5.044;2022-11-15T07:05:56;10.70;99.90
48912;DHT22;34722;52.108;5.044;2022-11-15T07:08:28;10.70;99.90
48912;DHT22;34722;52.108;5.044;2022-11-15T07:11:01;10.60;99.90
48912;DHT22;34722;52.108;5.044;2022-11-15T07:13:28;10.60;99.90
48912;DHT22;34722;52.108;5.044;2022-11-15T07:15:54;10.60;99.90
48912;DHT22;34722;52.108;5.044;2022-11-15T07:18:20;10.60;99.90
48912;DHT22;34722;52.108;5.044;2022-11-15T07:20:46;10.50;99.90
48912;DHT22;34722;52.108;5.044;2022-11-15T07:23:12;10.60;99.90
48912;DHT22;34722;52.108;5.044;2022-11-15T07:25:37;10.60;99.90
48912;DHT22;34722;52.108;5.044;2022-11-15T07:28:03;10.50;99.90
48912;DHT22;34722;52.108;5.044;2022-11-15T07:30:32;10.50;99.90
48912;DHT22;34722;52.108;5.044;2022-11-15T07:33:05;10.50;99.90
48912;DHT22;34722;52.108;5.044;2022-11-15T07:35:33;10.50;99.90
48912;DHT22;34722;52.108;5.044;2022-11-15T07:38:02;10.60;99.90
48912;DHT22;34722;52.108;5.044;2022-11-15T07:40:31;10.60;99.90
48912;DHT22;34722;52.108;5.044;2022-11-15T07:43:07;10.60;99.90
48912;DHT22;34722;52.108;5.044;2022-11-15T07:45:34;10.60;99.90
48912;DHT22;34722;52.108;5.044;2022-11-15T07:48:07;10.70;99.90
48912;DHT22;34722;52.108;5.044;2022-11-15T07:50:33;10.70;99.90
48912;DHT22;34722;52.108;5.044;2022-11-15T07:53:01;10.80;99.90
48912;DHT22;34722;52.108;5.044;2022-11-15T07:55:28;10.80;99.90
48912;DHT22;34722;52.108;5.044;2022-11-15T07:58:24;10.90;99.90
48912;DHT22;34722;52.108;5.044;2022-11-15T08:00:50;10.90;99.90
48912;DHT22;34722;52.108;5.044;2022-11-15T08:03:17;10.90;99.90
48912;DHT22;34722;52.108;5.044;2022-11-15T08:05:43;10.80;99.90
48912;DHT22;34722;52.108;5.044;2022-11-15T08:08:15;10.90;99.90
48912;DHT22;34722;52.108;5.044;2022-11-15T08:10:46;10.90;99.90
48912;DHT22;34722;52.108;5.044;2022-11-15T08:13:13;10.90;99.90
48912;DHT22;34722;52.108;5.044;2022-11-15T08:15:45;10.90;99.90
48912;DHT22;34722;52.108;5.044;2022-11-15T08:18:14;11.00;99.90
48912;DHT22;34722;52.108;5.044;2022-11-15T08:20:41;11.00;99.90
48912;DHT22;34722;52.108;5.044;2022-11-15T08:23:09;11.00;99.90
48912;DHT22;34722;52.108;5.044;2022-11-15T08:25:35;11.10;99.90
48912;DHT22;34722;52.108;5.044;2022-11-15T08:28:04;11.10;99.90
48912;DHT22;34722;52.108;5.044;2022-11-15T08:30:30;11.10;99.90
48912;DHT22;34722;52.108;5.044;2022-11-15T08:33:00;11.10;99.90
48912;DHT22;34722;52.108;5.044;2022-11-15T08:35:26;11.10;99.90
48912;DHT22;34722;52.108;5.044;2022-11-15T08:37:52;11.20;99.90
48912;DHT22;34722;52.108;5.044;2022-11-15T08:40:19;11.30;99.90
48912;DHT22;34722;52.108;5.044;2022-11-15T08:42:48;11.50;99.90
48912;DHT22;34722;52.108;5.044;2022-11-15T08:45:15;11.60;99.90
48912;DHT22;34722;52.108;5.044;2022-11-15T08:47:44;11.70;99.90
48912;DHT22;34722;52.108;5.044;2022-11-15T08:50:10;11.80;99.90
48912;DHT22;34722;52.108;5.044;2022-11-15T08:52:35;12.20;99.90
48912;DHT22;34722;52.108;5.044;2022-11-15T08:55:01;12.90;99.90
48912;DHT22;34722;52.108;5.044;2022-11-15T08:57:31;13.30;99.90
48912;DHT22;34722;52.108;5.044;2022-11-15T08:59:59;13.60;99.90
48912;DHT22;34722;52.108;5.044;2022-11-15T09:02:25;13.10;99.90
48912;DHT22;34722;52.108;5.044;2022-11-15T09:04:51;12.90;99.90
48912;DHT22;34722;52.108;5.044;2022-11-15T09:07:16;13.10;99.90
48912;DHT22;34722;52.108;5.044;2022-11-15T09:09:43;13.10;99.90
48912;DHT22;34722;52.108;5.044;2022-11-15T09:12:08;13.00;99.90
48912;DHT22;34722;52.108;5.044;2022-11-15T09:14:34;13.20;99.90
48912;DHT22;34722;52.108;5.044;2022-11-15T09:17:06;13.60;99.90
48912;DHT22;34722;52.108;5.044;2022-11-15T09:19:32;14.60;99.90
48912;DHT22;34722;52.108;5.044;2022-11-15T09:22:01;15.70;99.90
48912;DHT22;34722;52.108;5.044;2022-11-15T09:24:27;16.00;67.80
48912;DHT22;34722;52.108;5.044;2022-11-15T09:26:52;15.50;26.00
48912;DHT22;34722;52.108;5.044;2022-11-15T09:29:18;15.30;26.60
48912;DHT22;34722;52.108;5.044;2022-11-15T09:31:44;14.90;18.50
48912;DHT22;34722;52.108;5.044;2022-11-15T09:34:10;14.70;26.50
48912;DHT22;34722;52.108;5.044;2022-11-15T09:36:36;15.00;6.80
48912;DHT22;34722;52.108;5.044;2022-11-15T09:39:02;14.70;20.40
48912;DHT22;34722;52.108;5.044;2022-11-15T09:44:22;13.80;57.60
48912;DHT22;34722;52.108;5.044;2022-11-15T09:49:59;13.10;86.10
48912;DHT22;34722;52.108;5.044;2022-11-15T09:52:26;12.90;93.30
48912;DHT22;34722;52.108;5.044;2022-11-15T09:54:53;12.80;96.10
48912;DHT22;34722;52.108;5.044;2022-11-15T09:57:32;12.60;99.60
48912;DHT22;34722;52.108;5.044;2022-11-15T10:05:22;12.70;95.20
48912;DHT22;34722;52.108;5.044;2022-11-15T10:10:49;12.80;89.30
48912;DHT22;34722;52.108;5.044;2022-11-15T10:13:36;12.70;92.60
48912;DHT22;34722;52.108;5.044;2022-11-15T10:16:32;12.70;91.50
48912;DHT22;34722;52.108;5.044;2022-11-15T10:22:21;12.50;91.50
48912;DHT22;34722;52.108;5.044;2022-11-15T10:24:50;12.40;94.50
48912;DHT22;34722;52.108;5.044;2022-11-15T10:27:18;12.50;93.40
48912;DHT22;34722;52.108;5.044;2022-11-15T10:29:47;12.60;94.90
48912;DHT22;34722;52.108;5.044;2022-11-15T10:32:17;12.80;77.70
48912;DHT22;34722;52.108;5.044;2022-11-15T10:34:43;13.10;56.90
48912;DHT22;34722;52.108;5.044;2022-11-15T10:37:09;13.30;47.60
48912;DHT22;34722;52.108;5.044;2022-11-15T10:39:35;13.50;41.80
48912;DHT22;34722;52.108;5.044;2022-11-15T10:42:28;13.40;31.70
48912;DHT22;34722;52.108;5.044;2022-11-15T10:44:54;13.30;39.70
48912;DHT22;34722;52.108;5.044;2022-11-15T10:47:25;13.50;35.20
48912;DHT22;34722;52.108;5.044;2022-11-15T10:52:34;13.50;35.80
48912;DHT22;34722;52.108;5.044;2022-11-15T10:57:47;13.20;27.30
48912;DHT22;34722;52.108;5.044;2022-11-15T11:03:08;12.90;21.70
48912;DHT22;34722;52.108;5.044;2022-11-15T11:05:46;12.90;32.60
48912;DHT22;34722;52.108;5.044;2022-11-15T11:10:55;12.80;40.40
48912;DHT22;34722;52.108;5.044;2022-11-15T11:13:25;12.80;43.50
48912;DHT22;34722;52.108;5.044;2022-11-15T11:15:59;12.70;42.70
48912;DHT22;34722;52.108;5.044;2022-11-15T11:21:11;12.50;36.10
48912;DHT22;34722;52.108;5.044;2022-11-15T11:24:01;12.50;33.70
48912;DHT22;34722;52.108;5.044;2022-11-15T11:38:11;12.90;21.20
48912;DHT22;34722;52.108;5.044;2022-11-15T11:40:44;12.80;16.70
48912;DHT22;34722;52.108;5.044;2022-11-15T11:51:46;12.90;6.30
48912;DHT22;34722;52.108;5.044;2022-11-15T11:54:22;13.00;3.90
48912;DHT22;34722;52.108;5.044;2022-11-15T11:56:49;13.10;1.00
48912;DHT22;34722;52.108;5.044;2022-11-15T11:59:36;13.00;4.00
48912;DHT22;34722;52.108;5.044;2022-11-15T12:02:13;13.00;1.00
48912;DHT22;34722;52.108;5.044;2022-11-15T12:04:48;13.10;1.00
48912;DHT22;34722;52.108;5.044;2022-11-15T12:07:29;13.00;1.00
48912;DHT22;34722;52.108;5.044;2022-11-15T12:10:11;13.10;1.00
48912;DHT22;34722;52.108;5.044;2022-11-15T12:15:35;13.20;1.00
48912;DHT22;34722;52.108;5.044;2022-11-15T12:18:02;13.10;1.00
48912;DHT22;34722;52.108;5.044;2022-11-15T12:20:37;13.00;1.00
48912;DHT22;34722;52.108;5.044;2022-11-15T12:26:06;13.00;1.00
48912;DHT22;34722;52.108;5.044;2022-11-15T12:31:34;13.20;1.00
48912;DHT22;34722;52.108;5.044;2022-11-15T12:34:03;13.20;1.00
48912;DHT22;34722;52.108;5.044;2022-11-15T12:36:43;13.30;1.00
48912;DHT22;34722;52.108;5.044;2022-11-15T12:39:11;13.30;1.00
48912;DHT22;34722;52.108;5.044;2022-11-15T12:59:57;13.00;1.00
48912;DHT22;34722;52.108;5.044;2022-11-15T13:03:27;13.00;1.00
48912;DHT22;34722;52.108;5.044;2022-11-15T13:08:07;12.90;1.00
48912;DHT22;34722;52.108;5.044;2022-11-15T13:10:34;13.00;1.00
48912;DHT22;34722;52.108;5.044;2022-11-15T13:13:02;12.90;1.00
48912;DHT22;34722;52.108;5.044;2022-11-15T13:15:35;12.90;1.00
48912;DHT22;34722;52.108;5.044;2022-11-15T13:18:28;12.80;1.00
48912;DHT22;34722;52.108;5.044;2022-11-15T13:20:54;12.80;1.00
48912;DHT22;34722;52.108;5.044;2022-11-15T13:23:21;12.80;1.00
48912;DHT22;34722;52.108;5.044;2022-11-15T13:26:09;12.80;1.00
48912;DHT22;34722;52.108;5.044;2022-11-15T13:28:46;12.70;1.00
48912;DHT22;34722;52.108;5.044;2022-11-15T13:33:46;12.70;1.00
48912;DHT22;34722;52.108;5.044;2022-11-15T13:38:43;12.60;1.00
48912;DHT22;34722;52.108;5.044;2022-11-15T13:41:21;12.60;1.00
48912;DHT22;34722;52.108;5.044;2022-11-15T13:43:48;12.50;1.00
48912;DHT22;34722;52.108;5.044;2022-11-15T13:46:28;12.60;1.00
48912;DHT22;34722;52.108;5.044;2022-11-15T13:49:02;12.50;1.00
48912;DHT22;34722;52.108;5.044;2022-11-15T13:51:50;12.50;1.00
48912;DHT22;34722;52.108;5.044;2022-11-15T13:56:59;12.50;1.00
48912;DHT22;34722;52.108;5.044;2022-11-15T13:59:34;12.50;1.00
48912;DHT22;34722;52.108;5.044;2022-11-15T14:02:16;12.50;1.00
48912;DHT22;34722;52.108;5.044;2022-11-15T14:04:49;12.40;1.00
48912;DHT22;34722;52.108;5.044;2022-11-15T14:07:18;12.40;1.00
48912;DHT22;34722;52.108;5.044;2022-11-15T14:09:45;12.40;1.00
48912;DHT22;34722;52.108;5.044;2022-11-15T14:14:53;12.40;1.00
48912;DHT22;34722;52.108;5.044;2022-11-15T14:19:56;12.40;3.80
48912;DHT22;34722;52.108;5.044;2022-11-15T14:22:27;12.40;4.30
48912;DHT22;34722;52.108;5.044;2022-11-15T14:27:39;12.40;8.40
48912;DHT22;34722;52.108;5.044;2022-11-15T14:30:05;12.30;8.10
48912;DHT22;34722;52.108;5.044;2022-11-15T14:32:57;12.30;9.20
48912;DHT22;34722;52.108;5.044;2022-11-15T14:35:23;12.30;7.70
48912;DHT22;34722;52.108;5.044;2022-11-15T14:37:49;12.30;7.00
48912;DHT22;34722;52.108;5.044;2022-11-15T14:40:20;12.30;9.30
48912;DHT22;34722;52.108;5.044;2022-11-15T14:42:50;12.20;13.80
48912;DHT22;34722;52.108;5.044;2022-11-15T14:45:21;12.20;16.10
48912;DHT22;34722;52.108;5.044;2022-11-15T14:47:48;12.20;16.60
48912;DHT22;34722;52.108;5.044;2022-11-15T14:50:36;12.20;16.20
48912;DHT22;34722;52.108;5.044;2022-11-15T14:53:00;12.10;22.20
48912;DHT22;34722;52.108;5.044;2022-11-15T14:55:34;12.10;20.40
48912;DHT22;34722;52.108;5.044;2022-11-15T14:58:06;12.10;19.70
48912;DHT22;34722;52.108;5.044;2022-11-15T15:00:37;12.10;18.30
48912;DHT22;34722;52.108;5.044;2022-11-15T15:03:07;12.10;16.80
48912;DHT22;34722;52.108;5.044;2022-11-15T15:05:38;12.10;19.30
48912;DHT22;34722;52.108;5.044;2022-11-15T15:08:05;12.10;18.50
48912;DHT22;34722;52.108;5.044;2022-11-15T15:10:37;12.10;17.00
48912;DHT22;34722;52.108;5.044;2022-11-15T15:13:04;12.10;20.00
48912;DHT22;34722;52.108;5.044;2022-11-15T15:15:35;12.10;16.30
48912;DHT22;34722;52.108;5.044;2022-11-15T15:18:04;12.00;17.70
48912;DHT22;34722;52.108;5.044;2022-11-15T15:20:31;12.00;14.60
48912;DHT22;34722;52.108;5.044;2022-11-15T15:22:58;12.00;14.60
48912;DHT22;34722;52.108;5.044;2022-11-15T15:25:34;12.10;12.00
48912;DHT22;34722;52.108;5.044;2022-11-15T15:28:01;12.00;11.10
48912;DHT22;34722;52.108;5.044;2022-11-15T15:30:29;12.00;13.50
48912;DHT22;34722;52.108;5.044;2022-11-15T15:32:55;12.00;11.40
48912;DHT22;34722;52.108;5.044;2022-11-15T15:35:22;12.00;10.90
48912;DHT22;34722;52.108;5.044;2022-11-15T15:37:49;12.00;5.40
48912;DHT22;34722;52.108;5.044;2022-11-15T15:40:18;12.00;4.30
48912;DHT22;34722;52.108;5.044;2022-11-15T15:42:43;12.00;6.80
48912;DHT22;34722;52.108;5.044;2022-11-15T15:45:09;12.00;6.40
48912;DHT22;34722;52.108;5.044;2022-11-15T15:47:36;12.00;5.10
48912;DHT22;34722;52.108;5.044;2022-11-15T15:50:04;12.00;5.50
48912;DHT22;34722;52.108;5.044;2022-11-15T15:52:42;12.00;6.20
48912;DHT22;34722;52.108;5.044;2022-11-15T15:55:08;12.00;3.10
48912;DHT22;34722;52.108;5.044;2022-11-15T15:57:35;12.10;1.00
48912;DHT22;34722;52.108;5.044;2022-11-15T16:00:04;12.10;1.00
48912;DHT22;34722;52.108;5.044;2022-11-15T16:03:11;12.20;1.00
48912;DHT22;34722;52.108;5.044;2022-11-15T16:05:37;12.20;1.00
48912;DHT22;34722;52.108;5.044;2022-11-15T16:08:24;12.20;1.00
48912;DHT22;34722;52.108;5.044;2022-11-15T16:10:59;12.20;1.00
48912;DHT22;34722;52.108;5.044;2022-11-15T16:13:25;12.20;1.00
48912;DHT22;34722;52.108;5.044;2022-11-15T16:15:53;12.30;1.00
48912;DHT22;34722;52.108;5.044;2022-11-15T16:18:19;12.30;1.00
48912;DHT22;34722;52.108;5.044;2022-11-15T16:20:47;12.30;1.00
48912;DHT22;34722;52.108;5.044;2022-11-15T16:23:21;12.40;1.00
48912;DHT22;34722;52.108;5.044;2022-11-15T16:25:53;12.40;1.00
48912;DHT22;34722;52.108;5.044;2022-11-15T16:28:26;12.30;1.00
48912;DHT22;34722;52.108;5.044;2022-11-15T16:31:08;12.30;1.00
48912;DHT22;34722;52.108;5.044;2022-11-15T16:33:34;12.20;8.40
48912;DHT22;34722;52.108;5.044;2022-11-15T16:36:04;12.10;14.00
48912;DHT22;34722;52.108;5.044;2022-11-15T16:38:33;11.90;31.70
48912;DHT22;34722;52.108;5.044;2022-11-15T16:41:00;11.70;48.10
48912;DHT22;34722;52.108;5.044;2022-11-15T16:43:26;11.50;63.50
48912;DHT22;34722;52.108;5.044;2022-11-15T16:45:54;11.40;69.20
48912;DHT22;34722;52.108;5.044;2022-11-15T16:48:25;11.30;82.40
48912;DHT22;34722;52.108;5.044;2022-11-15T16:50:56;11.20;92.30
48912;DHT22;34722;52.108;5.044;2022-11-15T16:53:22;11.10;99.90
48912;DHT22;34722;52.108;5.044;2022-11-15T16:55:48;11.00;99.90
48912;DHT22;34722;52.108;5.044;2022-11-15T16:58:14;10.80;99.90
48912;DHT22;34722;52.108;5.044;2022-11-15T17:00:40;10.70;99.90
48912;DHT22;34722;52.108;5.044;2022-11-15T17:03:11;10.70;99.90
48912;DHT22;34722;52.108;5.044;2022-11-15T17:05:39;10.60;99.90
48912;DHT22;34722;52.108;5.044;2022-11-15T17:08:05;10.60;99.90
48912;DHT22;34722;52.108;5.044;2022-11-15T17:10:31;10.60;99.90
48912;DHT22;34722;52.108;5.044;2022-11-15T17:12:57;10.60;99.90
48912;DHT22;34722;52.108;5.044;2022-11-15T17:15:23;10.50;99.90
48912;DHT22;34722;52.108;5.044;2022-11-15T17:17:53;10.50;99.90
48912;DHT22;34722;52.108;5.044;2022-11-15T17:20:20;10.50;99.90
48912;DHT22;34722;52.108;5.044;2022-11-15T17:22:46;10.50;99.90
48912;DHT22;34722;52.108;5.044;2022-11-15T17:25:12;10.60;99.90
48912;DHT22;34722;52.108;5.044;2022-11-15T17:27:38;10.60;99.90
48912;DHT22;34722;52.108;5.044;2022-11-15T17:30:05;10.60;99.90
48912;DHT22;34722;52.108;5.044;2022-11-15T17:32:31;10.50;99.90
48912;DHT22;34722;52.108;5.044;2022-11-15T17:35:03;10.50;99.90
48912;DHT22;34722;52.108;5.044;2022-11-15T17:37:32;10.50;99.90
48912;DHT22;34722;52.108;5.044;2022-11-15T17:39:58;10.50;99.90
48912;DHT22;34722;52.108;5.044;2022-11-15T17:42:32;10.60;99.90
48912;DHT22;34722;52.108;5.044;2022-11-15T17:44:59;10.50;99.90
48912;DHT22;34722;52.108;5.044;2022-11-15T17:47:25;10.60;99.90
48912;DHT22;34722;52.108;5.044;2022-11-15T17:49:51;10.50;99.90
48912;DHT22;34722;52.108;5.044;2022-11-15T17:52:25;10.60;99.90
48912;DHT22;34722;52.108;5.044;2022-11-15T17:54:51;10.50;99.90